Time;durP1;ratioP1;P1;durP2;ratioP2;P2;SDS_P1;SDS_P2;PMS_P1;PMS_P2;Temp;Humidity;BMP_temperature;BMP_pressure;BME280_temperature;BME280_humidity;BME280_pressure;Samples;Min_cycle;Max_cycle;Signal;HPM_P1;HPM_P2
2023/06/07 00:01:48;;;;;;;11.25;6.75;;;10.50;99.90;;;;;;5109173;27;20043;-84
2023/06/07 00:04:13;;;;;;;13.43;7.40;;;10.50;99.90;;;;;;5064771;28;20540;-84
2023/06/07 00:06:39;;;;;;;19.77;7.40;;;10.50;99.90;;;;;;5096574;27;20503;-84
2023/06/07 00:09:09;;;;;;;12.77;6.85;;;10.50;99.90;;;;;;5090818;27;20061;-84
2023/06/07 00:11:35;;;;;;;15.18;7.38;;;10.40;99.90;;;;;;5068001;28;20040;-84
2023/06/07 00:14:02;;;;;;;18.42;7.72;;;10.40;99.90;;;;;;5107914;27;20607;-84
2023/06/07 00:16:27;;;;;;;13.90;7.40;;;10.40;99.90;;;;;;5079689;28;20048;-84
2023/06/07 00:18:53;;;;;;;18.00;7.40;;;10.40;99.90;;;;;;5076526;28;20032;-85
2023/06/07 00:21:19;;;;;;;17.08;7.95;;;10.40;99.90;;;;;;5096772;27;20055;-85
2023/06/07 00:23:46;;;;;;;14.77;7.63;;;10.40;99.90;;;;;;5085585;28;20044;-84
2023/06/07 00:26:12;;;;;;;14.30;7.53;;;10.30;99.90;;;;;;5092665;27;20037;-84
2023/06/07 00:28:37;;;;;;;16.48;8.00;;;10.30;99.90;;;;;;5086454;28;20726;-85
2023/06/07 00:31:04;;;;;;;13.45;7.55;;;10.30;99.90;;;;;;5059195;28;20056;-84
2023/06/07 00:33:29;;;;;;;18.05;8.00;;;10.30;99.90;;;;;;5094277;27;20584;-85
2023/06/07 00:35:55;;;;;;;16.42;8.55;;;10.30;99.90;;;;;;5082228;28;20028;-85
2023/06/07 00:38:23;;;;;;;13.57;8.25;;;10.30;99.90;;;;;;5094473;27;20044;-85
2023/06/07 00:40:49;;;;;;;13.27;7.88;;;10.20;99.90;;;;;;5095637;27;20050;-85
2023/06/07 00:43:15;;;;;;;17.30;8.52;;;10.20;99.90;;;;;;5070836;28;20185;-85
2023/06/07 00:45:41;;;;;;;14.90;8.40;;;10.20;99.90;;;;;;5067858;28;20039;-85
2023/06/07 00:48:07;;;;;;;11.10;7.05;;;10.20;99.90;;;;;;5093342;27;20533;-85
2023/06/07 00:50:34;;;;;;;21.85;8.25;;;10.20;99.90;;;;;;5070706;28;20041;-84
2023/06/07 00:53:01;;;;;;;14.63;8.52;;;10.10;99.90;;;;;;5076412;28;20423;-84
2023/06/07 00:55:27;;;;;;;16.98;8.73;;;10.10;99.90;;;;;;5097094;27;21462;-84
2023/06/07 00:57:54;;;;;;;16.13;7.85;;;10.10;99.90;;;;;;5101545;27;20077;-84
2023/06/07 01:00:20;;;;;;;13.98;8.00;;;10.00;99.90;;;;;;5083488;28;20709;-84
2023/06/07 01:02:49;;;;;;;19.65;9.40;;;10.00;99.90;;;;;;5082789;28;20072;-84
2023/06/07 01:05:20;;;;;;;15.43;8.38;;;10.00;99.90;;;;;;5079071;28;20054;-84
2023/06/07 01:07:47;;;;;;;16.73;8.07;;;10.00;99.90;;;;;;5100605;27;20040;-84
2023/06/07 01:10:14;;;;;;;16.30;8.70;;;10.00;99.90;;;;;;5061955;28;20035;-84
2023/06/07 01:12:44;;;;;;;18.50;8.65;;;9.90;99.90;;;;;;5076549;28;20040;-84
2023/06/07 01:15:12;;;;;;;16.05;8.70;;;9.90;99.90;;;;;;5077583;28;20107;-84
2023/06/07 01:17:44;;;;;;;18.35;8.98;;;9.80;99.90;;;;;;5061984;28;20032;-84
2023/06/07 01:20:23;;;;;;;21.73;9.40;;;9.80;99.90;;;;;;5076118;28;20047;-84
2023/06/07 01:22:51;;;;;;;19.00;8.60;;;9.80;99.90;;;;;;5077308;28;20036;-84
2023/06/07 01:25:17;;;;;;;13.85;9.15;;;9.80;99.90;;;;;;5096850;27;20043;-84
2023/06/07 01:27:45;;;;;;;19.42;8.90;;;9.70;99.90;;;;;;5073472;28;20489;-84
2023/06/07 01:30:12;;;;;;;21.02;9.05;;;9.70;99.90;;;;;;5092098;28;20060;-84
2023/06/07 01:32:41;;;;;;;14.23;7.93;;;9.70;99.90;;;;;;5073765;28;20043;-84
2023/06/07 01:35:09;;;;;;;19.60;9.82;;;9.70;99.90;;;;;;5074890;28;20036;-84
2023/06/07 01:37:35;;;;;;;17.83;9.05;;;9.70;99.90;;;;;;5066788;28;20568;-84
2023/06/07 01:40:03;;;;;;;16.13;8.75;;;9.70;99.90;;;;;;5078705;28;20389;-84
2023/06/07 01:42:29;;;;;;;28.10;10.48;;;9.60;99.90;;;;;;5062340;28;20634;-84
2023/06/07 01:44:58;;;;;;;18.50;9.93;;;9.70;99.90;;;;;;5100588;27;20048;-85
2023/06/07 01:47:24;;;;;;;25.38;9.18;;;9.60;99.90;;;;;;5095885;27;20128;-84
2023/06/07 01:49:50;;;;;;;17.02;9.25;;;9.60;99.90;;;;;;5087302;27;20448;-85
2023/06/07 01:52:16;;;;;;;18.48;8.85;;;9.60;99.90;;;;;;5092799;27;20056;-84
2023/06/07 01:54:43;;;;;;;19.00;9.40;;;9.50;99.90;;;;;;5081393;28;20072;-84
2023/06/07 01:57:31;;;;;;;31.98;10.25;;;9.50;99.90;;;;;;5104543;27;20044;-85
2023/06/07 02:00:10;;;;;;;21.45;9.35;;;9.50;99.90;;;;;;5071048;28;20077;-85
2023/06/07 02:02:51;;;;;;;18.60;9.55;;;9.50;99.90;;;;;;5092541;27;20662;-85
2023/06/07 02:05:20;;;;;;;16.45;9.40;;;9.50;99.90;;;;;;5111435;27;20054;-84
2023/06/07 02:07:51;;;;;;;19.73;9.20;;;9.50;99.90;;;;;;5070782;28;20394;-84
2023/06/07 02:10:20;;;;;;;19.48;9.32;;;9.50;99.90;;;;;;5075283;28;20048;-84
2023/06/07 02:12:48;;;;;;;15.73;8.15;;;9.50;99.90;;;;;;5062035;28;20040;-84
2023/06/07 02:15:14;;;;;;;21.33;9.95;;;9.40;99.90;;;;;;5060461;28;20065;-84
2023/06/07 02:18:06;;;;;;;20.75;9.50;;;9.40;99.90;;;;;;5073585;28;20067;-84
2023/06/07 02:20:35;;;;;;;21.23;10.13;;;9.40;99.90;;;;;;5075457;28;21431;-83
2023/06/07 02:23:01;;;;;;;17.92;8.80;;;9.40;99.90;;;;;;5064272;28;20066;-83
2023/06/07 02:25:27;;;;;;;25.13;9.93;;;9.40;99.90;;;;;;5071563;28;20044;-83
2023/06/07 02:27:53;;;;;;;19.55;10.57;;;9.40;99.90;;;;;;5069129;28;20044;-83
2023/06/07 02:30:19;;;;;;;27.58;10.63;;;9.30;99.90;;;;;;5104094;27;20200;-83
2023/06/07 02:32:48;;;;;;;15.60;9.52;;;9.30;99.90;;;;;;5085597;28;20037;-83
2023/06/07 02:35:15;;;;;;;23.52;9.93;;;8.80;99.90;;;;;;5088964;28;20020;-83
2023/06/07 02:37:40;;;;;;;21.77;9.63;;;9.30;99.90;;;;;;5100920;27;20028;-83
2023/06/07 02:40:09;;;;;;;16.60;10.45;;;9.30;99.90;;;;;;5075203;28;20043;-83
2023/06/07 02:42:36;;;;;;;20.63;10.35;;;9.30;99.90;;;;;;5088315;27;20044;-84
2023/06/07 02:45:02;;;;;;;19.10;9.95;;;9.30;99.90;;;;;;5059833;28;20043;-83
2023/06/07 02:47:29;;;;;;;22.58;9.90;;;9.30;99.90;;;;;;5062626;28;20051;-83
2023/06/07 02:49:55;;;;;;;20.02;9.98;;;9.30;99.90;;;;;;5106966;27;20704;-83
2023/06/07 02:52:21;;;;;;;22.65;10.32;;;9.20;99.90;;;;;;5088801;28;20062;-83
2023/06/07 02:54:47;;;;;;;26.02;10.27;;;9.20;99.90;;;;;;5080125;28;20041;-83
2023/06/07 02:57:12;;;;;;;18.15;9.70;;;9.20;99.90;;;;;;5067066;28;20444;-83
2023/06/07 02:59:39;;;;;;;20.60;10.35;;;9.20;99.90;;;;;;5054563;28;20045;-83
2023/06/07 03:02:06;;;;;;;18.80;10.48;;;9.20;99.90;;;;;;5079150;28;20039;-83
2023/06/07 03:04:31;;;;;;;19.55;10.70;;;9.10;99.90;;;;;;5086204;28;20043;-83
2023/06/07 03:06:58;;;;;;;21.17;10.25;;;9.10;99.90;;;;;;5074983;28;20083;-83
2023/06/07 03:09:24;;;;;;;18.60;11.05;;;9.10;99.90;;;;;;5079300;28;20528;-83
2023/06/07 03:11:50;;;;;;;23.77;10.95;;;9.10;99.90;;;;;;5089445;28;20477;-83
2023/06/07 03:14:19;;;;;;;26.38;10.88;;;9.10;99.90;;;;;;5047105;28;20042;-83
2023/06/07 03:16:45;;;;;;;25.80;10.65;;;9.10;99.90;;;;;;5071356;28;20036;-83
2023/06/07 03:19:12;;;;;;;16.52;9.65;;;9.10;99.90;;;;;;5087162;28;20069;-83
2023/06/07 03:21:44;;;;;;;18.90;9.15;;;9.10;99.90;;;;;;5080532;28;20048;-83
2023/06/07 03:24:11;;;;;;;20.92;10.13;;;9.10;99.90;;;;;;5090719;28;20052;-83
2023/06/07 03:26:37;;;;;;;20.75;9.68;;;9.10;99.90;;;;;;5076099;28;20040;-83
2023/06/07 03:29:02;;;;;;;22.00;10.23;;;9.10;99.90;;;;;;5073167;28;20050;-83
2023/06/07 03:31:28;;;;;;;21.17;9.30;;;9.10;99.90;;;;;;5069905;28;20532;-83
2023/06/07 03:33:54;;;;;;;25.55;10.95;;;9.10;99.90;;;;;;5094933;28;20088;-83
2023/06/07 03:36:25;;;;;;;22.98;10.95;;;9.10;99.90;;;;;;5072939;28;20029;-82
2023/06/07 03:38:52;;;;;;;15.45;9.82;;;9.10;99.90;;;;;;5073422;28;20040;-83
2023/06/07 03:41:18;;;;;;;24.98;10.40;;;9.10;99.90;;;;;;5079674;28;20107;-83
2023/06/07 03:43:44;;;;;;;21.67;10.88;;;9.10;99.90;;;;;;5096589;27;20044;-83
2023/06/07 03:46:09;;;;;;;20.77;10.13;;;9.10;99.90;;;;;;5074108;28;20047;-83
2023/06/07 03:48:36;;;;;;;21.23;10.95;;;9.10;99.90;;;;;;5097163;27;20058;-83
2023/06/07 03:51:02;;;;;;;21.63;11.80;;;9.10;99.90;;;;;;5087519;28;20052;-83
2023/06/07 03:53:27;;;;;;;24.95;10.48;;;9.20;99.90;;;;;;5068470;28;20051;-83
2023/06/07 03:55:54;;;;;;;15.88;10.00;;;9.20;99.90;;;;;;5112284;27;20032;-83
2023/06/07 03:58:20;;;;;;;22.77;10.35;;;9.20;99.90;;;;;;5096616;27;20554;-82
2023/06/07 04:00:47;;;;;;;19.77;10.70;;;9.30;99.90;;;;;;5086400;28;20036;-83
2023/06/07 04:03:14;;;;;;;22.25;11.77;;;9.30;99.90;;;;;;5079246;28;20056;-82
2023/06/07 04:05:40;;;;;;;19.05;11.38;;;9.30;99.90;;;;;;5096390;27;20052;-82
2023/06/07 04:08:06;;;;;;;23.73;11.90;;;9.40;99.90;;;;;;5081357;28;20035;-82
2023/06/07 04:10:32;;;;;;;21.45;10.27;;;9.40;99.90;;;;;;5076681;28;20869;-83
2023/06/07 04:12:58;;;;;;;18.48;9.50;;;9.40;99.90;;;;;;5091124;27;20443;-83
2023/06/07 04:15:24;;;;;;;18.38;9.05;;;9.50;99.90;;;;;;5069859;28;20032;-83
2023/06/07 04:17:49;;;;;;;20.88;10.38;;;9.60;99.90;;;;;;5068614;28;20101;-82
2023/06/07 04:20:15;;;;;;;22.38;10.50;;;9.60;99.90;;;;;;5082005;28;20139;-83
2023/06/07 04:22:42;;;;;;;22.50;10.25;;;9.70;99.90;;;;;;5078303;28;20066;-83
2023/06/07 04:25:08;;;;;;;23.05;10.02;;;9.80;99.90;;;;;;5079783;28;20370;-82
2023/06/07 04:27:37;;;;;;;25.90;10.60;;;9.80;99.90;;;;;;5074600;28;20037;-82
2023/06/07 04:30:05;;;;;;;23.98;9.82;;;9.80;99.90;;;;;;5098017;27;20390;-83
2023/06/07 04:32:33;;;;;;;21.77;10.25;;;9.90;99.90;;;;;;5077061;28;21863;-83
2023/06/07 04:34:59;;;;;;;23.95;9.88;;;10.00;99.90;;;;;;5096477;27;20115;-82
2023/06/07 04:37:25;;;;;;;22.73;10.00;;;10.00;99.90;;;;;;5079747;28;20051;-83
2023/06/07 04:39:51;;;;;;;21.60;8.88;;;10.10;99.90;;;;;;5078179;28;20105;-83
2023/06/07 04:42:17;;;;;;;20.05;8.85;;;10.20;99.90;;;;;;5098709;27;20116;-82
2023/06/07 04:44:44;;;;;;;29.17;9.30;;;10.30;99.90;;;;;;5074517;28;20075;-82
2023/06/07 04:47:10;;;;;;;16.30;8.73;;;10.30;99.90;;;;;;5071849;28;20036;-82
2023/06/07 04:49:38;;;;;;;21.48;8.68;;;10.40;99.90;;;;;;5093831;28;20051;-82
2023/06/07 04:52:05;;;;;;;39.67;9.90;;;10.40;99.90;;;;;;5075640;28;20473;-82
2023/06/07 04:54:32;;;;;;;26.35;9.10;;;10.50;99.90;;;;;;5092309;27;20039;-82
2023/06/07 04:56:58;;;;;;;23.70;9.23;;;10.50;99.90;;;;;;5077219;28;20120;-82
2023/06/07 04:59:25;;;;;;;26.33;8.70;;;10.60;99.90;;;;;;5077667;28;20195;-82
2023/06/07 05:01:51;;;;;;;27.70;8.05;;;10.70;99.90;;;;;;5081720;28;20048;-82
2023/06/07 05:04:18;;;;;;;19.10;7.50;;;10.80;99.90;;;;;;5070505;28;20511;-82
2023/06/07 05:06:43;;;;;;;24.02;8.68;;;10.80;99.90;;;;;;5076113;28;20563;-82
2023/06/07 05:09:10;;;;;;;17.35;8.18;;;10.90;99.90;;;;;;5078601;28;20036;-82
2023/06/07 05:11:36;;;;;;;17.10;7.95;;;11.00;99.90;;;;;;5048897;28;20072;-83
2023/06/07 05:14:02;;;;;;;24.50;7.82;;;11.00;99.90;;;;;;5079933;28;20031;-82
2023/06/07 05:16:27;;;;;;;20.65;7.78;;;11.10;99.90;;;;;;5081730;28;20032;-82
2023/06/07 05:18:56;;;;;;;25.65;7.50;;;11.20;99.90;;;;;;5065115;28;20550;-82
2023/06/07 05:21:22;;;;;;;25.25;7.93;;;11.20;99.90;;;;;;5085032;28;20093;-83
2023/06/07 05:23:48;;;;;;;18.42;6.78;;;11.20;99.90;;;;;;5079406;28;20622;-78
2023/06/07 05:26:13;;;;;;;22.80;6.88;;;11.30;99.90;;;;;;5060510;28;20036;-71
2023/06/07 05:28:39;;;;;;;28.00;7.78;;;11.30;99.90;;;;;;5084640;28;20036;-69
2023/06/07 05:31:05;;;;;;;22.02;6.85;;;11.40;99.90;;;;;;5077891;28;20040;-70
2023/06/07 05:33:30;;;;;;;16.00;6.07;;;11.40;99.90;;;;;;5098908;27;20055;-70
2023/06/07 05:35:57;;;;;;;26.27;6.57;;;11.50;99.90;;;;;;5084584;28;20067;-70
2023/06/07 05:38:22;;;;;;;16.67;5.78;;;11.60;99.90;;;;;;5082705;28;20087;-70
2023/06/07 05:40:48;;;;;;;18.67;5.80;;;11.70;99.90;;;;;;5083186;28;20067;-70
2023/06/07 05:43:14;;;;;;;22.25;6.85;;;11.60;99.90;;;;;;5060483;28;20032;-70
2023/06/07 05:45:41;;;;;;;19.27;6.28;;;11.70;99.90;;;;;;5095270;27;20090;-70
2023/06/07 05:48:07;;;;;;;16.58;5.05;;;11.70;99.90;;;;;;5116820;27;20496;-69
2023/06/07 05:50:33;;;;;;;18.30;6.32;;;11.80;99.90;;;;;;5081728;28;20044;-70
2023/06/07 05:52:59;;;;;;;17.85;5.57;;;11.90;99.90;;;;;;5081771;28;20090;-85
2023/06/07 05:55:28;;;;;;;15.90;5.95;;;11.90;99.90;;;;;;5091624;28;20050;-86
2023/06/07 05:57:57;;;;;;;17.95;5.90;;;12.00;99.90;;;;;;5034467;28;20046;-88
2023/06/07 06:00:23;;;;;;;17.50;6.60;;;12.00;99.90;;;;;;5070066;28;20043;-87
2023/06/07 06:02:49;;;;;;;19.67;5.68;;;12.00;99.90;;;;;;5098810;28;20524;-87
2023/06/07 06:05:15;;;;;;;15.15;6.45;;;12.00;99.90;;;;;;5106897;28;20059;-87
2023/06/07 06:07:42;;;;;;;16.10;6.47;;;12.10;99.90;;;;;;5106359;28;20040;-87
2023/06/07 06:10:08;;;;;;;12.93;6.68;;;12.10;99.90;;;;;;5106271;28;20097;-87
2023/06/07 06:12:34;;;;;;;20.65;6.30;;;12.10;99.90;;;;;;5093356;28;20509;-87
2023/06/07 06:15:00;;;;;;;20.52;6.20;;;12.20;99.90;;;;;;5088476;28;20036;-87
2023/06/07 06:17:26;;;;;;;13.15;5.53;;;12.20;99.90;;;;;;5088944;28;20114;-88
2023/06/07 06:19:52;;;;;;;14.63;5.32;;;12.20;99.90;;;;;;5089373;28;20513;-87
2023/06/07 06:22:18;;;;;;;13.60;5.60;;;12.20;99.90;;;;;;5081072;28;20055;-87
2023/06/07 06:24:43;;;;;;;13.50;5.60;;;12.30;99.90;;;;;;5085925;28;20456;-89
2023/06/07 06:27:11;;;;;;;14.98;5.97;;;12.30;99.90;;;;;;5071950;28;20040;-87
2023/06/07 06:29:37;;;;;;;20.17;6.88;;;12.30;99.90;;;;;;5088664;28;20044;-88
2023/06/07 06:32:03;;;;;;;16.38;5.93;;;12.30;99.90;;;;;;5080897;28;20036;-88
2023/06/07 06:34:29;;;;;;;56.38;9.73;;;12.30;99.90;;;;;;5080881;28;20542;-88
2023/06/07 06:36:57;;;;;;;15.93;5.63;;;12.40;99.90;;;;;;5071830;28;20542;-86
2023/06/07 06:39:26;;;;;;;15.52;5.30;;;12.50;99.90;;;;;;5085260;28;20044;-87
2023/06/07 06:41:52;;;;;;;15.25;6.18;;;12.50;99.90;;;;;;5077394;28;20051;-87
2023/06/07 06:44:18;;;;;;;15.25;4.95;;;12.50;99.90;;;;;;5101453;28;20142;-86
2023/06/07 06:46:43;;;;;;;15.50;5.45;;;12.60;99.90;;;;;;5085595;28;20040;-88
2023/06/07 06:49:09;;;;;;;16.60;5.28;;;12.70;99.90;;;;;;5051651;28;20517;-87
2023/06/07 06:51:35;;;;;;;11.55;4.80;;;12.80;99.90;;;;;;5101061;28;20137;-87
2023/06/07 06:54:00;;;;;;;15.38;4.60;;;12.80;99.90;;;;;;5068530;28;20187;-86
2023/06/07 06:56:26;;;;;;;17.88;4.80;;;12.80;99.90;;;;;;5105982;28;20085;-86
2023/06/07 06:58:52;;;;;;;14.50;5.15;;;12.90;99.90;;;;;;5091951;28;20044;-86
2023/06/07 07:01:18;;;;;;;18.67;5.32;;;12.90;99.90;;;;;;5087617;28;20031;-84
2023/06/07 07:03:44;;;;;;;9.63;4.88;;;13.00;99.90;;;;;;5071559;28;20644;-84
2023/06/07 07:06:10;;;;;;;15.15;5.03;;;13.00;99.90;;;;;;5088621;28;20127;-84
2023/06/07 07:08:36;;;;;;;13.40;5.15;;;13.10;99.90;;;;;;5087498;28;20126;-84
2023/06/07 07:11:02;;;;;;;14.95;4.60;;;13.10;99.90;;;;;;5105147;28;20047;-83
2023/06/07 07:13:28;;;;;;;16.92;5.55;;;13.20;99.90;;;;;;5087798;28;20067;-83
2023/06/07 07:15:54;;;;;;;16.98;6.03;;;13.20;99.90;;;;;;5051956;28;20109;-84
2023/06/07 07:18:20;;;;;;;12.50;5.03;;;13.30;99.90;;;;;;5079628;28;20032;-84
2023/06/07 07:20:45;;;;;;;16.73;5.60;;;13.40;99.90;;;;;;5087097;28;20036;-84
2023/06/07 07:23:12;;;;;;;16.15;4.82;;;13.50;99.90;;;;;;5105490;28;20036;-84
2023/06/07 07:25:38;;;;;;;13.40;4.85;;;13.60;99.90;;;;;;5081707;28;20490;-88
2023/06/07 07:28:04;;;;;;;15.02;5.03;;;13.70;99.90;;;;;;5063739;28;20474;-87
2023/06/07 07:30:29;;;;;;;16.15;5.10;;;13.80;99.90;;;;;;5094679;28;20050;-88
2023/06/07 07:32:56;;;;;;;16.90;5.70;;;13.90;99.90;;;;;;5054619;28;20036;-88
2023/06/07 07:35:23;;;;;;;14.13;5.20;;;14.00;99.90;;;;;;5102257;28;20269;-87
2023/06/07 07:37:49;;;;;;;12.60;5.22;;;14.20;99.90;;;;;;5087557;28;20036;-88
2023/06/07 07:40:15;;;;;;;13.68;5.05;;;14.30;99.90;;;;;;5071079;28;20040;-87
2023/06/07 07:42:41;;;;;;;10.65;4.88;;;14.40;99.90;;;;;;5082864;28;20042;-87
2023/06/07 07:45:07;;;;;;;13.02;4.55;;;14.60;99.90;;;;;;5121483;28;20478;-87
2023/06/07 07:47:33;;;;;;;10.48;4.72;;;14.70;99.90;;;;;;5069988;28;20024;-86
2023/06/07 07:50:00;;;;;;;10.82;4.85;;;15.00;99.90;;;;;;5086448;28;20496;-87
2023/06/07 07:52:26;;;;;;;10.88;4.53;;;15.20;99.90;;;;;;5090867;28;20063;-87
2023/06/07 07:54:52;;;;;;;11.43;4.25;;;15.40;99.90;;;;;;5073704;28;20452;-87
2023/06/07 07:57:18;;;;;;;11.68;5.28;;;15.50;99.90;;;;;;5101283;28;20032;-87
2023/06/07 07:59:43;;;;;;;15.77;4.60;;;15.70;99.90;;;;;;5089848;28;20408;-86
2023/06/07 08:02:10;;;;;;;13.10;5.35;;;15.80;99.90;;;;;;5107800;28;20044;-87
2023/06/07 08:04:35;;;;;;;10.55;4.38;;;16.00;99.90;;;;;;5073274;28;20082;-88
2023/06/07 08:07:01;;;;;;;15.65;5.40;;;16.00;99.90;;;;;;5106309;28;20044;-86
2023/06/07 08:09:27;;;;;;;12.18;5.10;;;16.20;99.90;;;;;;5105472;28;20036;-87
2023/06/07 08:11:53;;;;;;;10.52;4.82;;;16.30;99.90;;;;;;5100542;28;20055;-86
2023/06/07 08:14:19;;;;;;;13.30;4.85;;;16.40;99.90;;;;;;5082914;28;20075;-87
2023/06/07 08:16:45;;;;;;;16.27;4.93;;;16.50;99.90;;;;;;5090226;28;20119;-87
2023/06/07 08:19:11;;;;;;;10.70;4.10;;;16.70;99.90;;;;;;5079201;28;20032;-86
2023/06/07 08:21:37;;;;;;;10.07;4.57;;;16.90;99.90;;;;;;5100129;28;20040;-86
2023/06/07 08:24:03;;;;;;;9.57;4.38;;;17.00;99.90;;;;;;5101527;28;20040;-87
2023/06/07 08:26:30;;;;;;;10.00;4.63;;;17.10;99.90;;;;;;5112265;27;20071;-88
2023/06/07 08:28:56;;;;;;;13.73;4.40;;;17.20;99.90;;;;;;5058411;28;20390;-87
2023/06/07 08:31:22;;;;;;;15.60;4.28;;;17.30;99.90;;;;;;5091498;28;20062;-87
2023/06/07 08:33:49;;;;;;;12.38;4.90;;;17.40;99.90;;;;;;5109340;28;20051;-86
2023/06/07 08:36:15;;;;;;;10.88;4.88;;;17.50;99.90;;;;;;5087106;28;20040;-87
2023/06/07 08:38:41;;;;;;;10.10;4.78;;;17.70;99.90;;;;;;5081628;28;20058;-87
2023/06/07 08:41:07;;;;;;;12.25;4.70;;;17.80;99.90;;;;;;5073924;28;20485;-87
2023/06/07 08:43:33;;;;;;;8.30;5.03;;;17.80;99.90;;;;;;5074194;28;20043;-87
2023/06/07 08:46:04;;;;;;;22.25;6.22;;;17.90;99.90;;;;;;5090013;28;20055;-87
2023/06/07 08:48:32;;;;;;;11.02;5.38;;;17.90;99.90;;;;;;5108127;28;20045;-86
2023/06/07 08:51:01;;;;;;;11.05;4.75;;;18.10;99.90;;;;;;5083514;28;20566;-86
2023/06/07 08:53:31;;;;;;;20.40;5.90;;;18.10;99.90;;;;;;5099457;28;20075;-88
2023/06/07 08:55:58;;;;;;;68.10;7.78;;;18.20;99.90;;;;;;5091636;28;20036;-87
2023/06/07 08:58:25;;;;;;;10.57;4.50;;;18.30;99.90;;;;;;5074842;28;20497;-88
2023/06/07 09:00:53;;;;;;;12.30;5.68;;;18.40;99.90;;;;;;5082422;28;20044;-87
2023/06/07 09:03:19;;;;;;;13.20;5.30;;;18.40;99.90;;;;;;5074486;28;20074;-87
2023/06/07 09:05:45;;;;;;;9.63;3.97;;;18.60;99.90;;;;;;5091656;28;20117;-88
2023/06/07 09:08:11;;;;;;;57.85;8.25;;;18.60;99.90;;;;;;5108491;28;20060;-87
2023/06/07 09:10:37;;;;;;;8.43;4.25;;;18.80;99.90;;;;;;5084745;28;20142;-88
2023/06/07 09:13:05;;;;;;;11.40;4.18;;;18.90;99.90;;;;;;5087543;28;20083;-87
2023/06/07 09:15:32;;;;;;;20.10;5.43;;;19.10;99.90;;;;;;5083079;28;20136;-87
2023/06/07 09:17:59;;;;;;;16.90;4.28;;;19.30;99.90;;;;;;5066193;28;20031;-87
2023/06/07 09:20:27;;;;;;;16.77;4.90;;;19.30;99.90;;;;;;5086671;28;20033;-87
2023/06/07 09:23:08;;;;;;;11.20;4.60;;;19.40;99.90;;;;;;5082785;28;20055;-87
2023/06/07 09:25:37;;;;;;;12.70;4.38;;;19.50;99.90;;;;;;5090513;28;20044;-87
2023/06/07 09:28:04;;;;;;;12.05;3.92;;;19.50;99.90;;;;;;5073343;28;20043;-86
2023/06/07 09:30:29;;;;;;;54.70;8.07;;;19.60;99.90;;;;;;5105826;28;20578;-87
2023/06/07 09:32:55;;;;;;;9.43;3.85;;;19.70;99.90;;;;;;5107146;28;20115;-87
2023/06/07 09:35:21;;;;;;;9.60;4.13;;;19.80;99.90;;;;;;5072924;28;20043;-86
2023/06/07 09:37:52;;;;;;;10.73;3.72;;;19.90;99.90;;;;;;5085546;28;20522;-87
2023/06/07 09:40:18;;;;;;;13.32;4.80;;;20.00;99.90;;;;;;5049246;28;20405;-86
2023/06/07 09:42:44;;;;;;;9.85;3.83;;;20.20;99.90;;;;;;5072557;28;20035;-87
2023/06/07 09:45:15;;;;;;;44.72;5.25;;;20.30;99.90;;;;;;5091962;28;20032;-87
2023/06/07 09:47:42;;;;;;;13.55;4.32;;;20.40;99.90;;;;;;5094458;28;20047;-87
2023/06/07 09:50:14;;;;;;;10.95;4.22;;;20.40;99.70;;;;;;5089923;28;20039;-87
2023/06/07 09:52:40;;;;;;;11.35;3.85;;;20.50;98.90;;;;;;5085113;28;20928;-86
2023/06/07 09:55:08;;;;;;;9.70;4.38;;;20.60;98.40;;;;;;5068632;28;20038;-86
2023/06/07 09:57:36;;;;;;;12.32;3.75;;;20.60;98.30;;;;;;5099659;27;20115;-86
2023/06/07 10:00:14;;;;;;;12.18;4.40;;;20.70;98.40;;;;;;5096477;28;20028;-87
2023/06/07 10:02:45;;;;;;;7.95;3.90;;;20.70;97.90;;;;;;5038283;28;20053;-84
2023/06/07 10:05:12;;;;;;;10.38;4.75;;;20.60;97.60;;;;;;5070040;28;20040;-87
2023/06/07 10:07:49;;;;;;;18.80;4.38;;;20.50;97.10;;;;;;5085538;27;20448;-84
2023/06/07 10:10:19;;;;;;;14.38;5.43;;;20.50;97.20;;;;;;5086735;28;20029;-83
2023/06/07 10:12:46;;;;;;;9.00;4.20;;;20.60;97.70;;;;;;5069653;28;20508;-84
2023/06/07 10:15:24;;;;;;;8.43;4.47;;;20.70;97.90;;;;;;5091290;28;20032;-85
2023/06/07 10:18:19;;;;;;;10.50;4.30;;;20.70;97.80;;;;;;5091907;27;20039;-85
2023/06/07 10:20:57;;;;;;;21.67;4.80;;;20.70;96.00;;;;;;5086022;28;20028;-84
2023/06/07 10:23:34;;;;;;;10.68;4.72;;;20.80;96.90;;;;;;5068611;28;20445;-84
2023/06/07 10:26:04;;;;;;;10.13;4.05;;;20.80;96.50;;;;;;5087240;28;20067;-84
2023/06/07 10:28:46;;;;;;;13.82;4.28;;;20.80;95.80;;;;;;5090514;28;20047;-87
2023/06/07 10:31:15;;;;;;;11.43;4.15;;;21.10;97.10;;;;;;5071674;28;20157;-85
2023/06/07 10:33:43;;;;;;;12.98;4.75;;;21.20;96.80;;;;;;5071498;28;20051;-86
2023/06/07 10:36:09;;;;;;;9.57;3.95;;;21.30;96.40;;;;;;5109177;27;20445;-88
2023/06/07 10:38:36;;;;;;;10.40;3.83;;;21.30;96.40;;;;;;5073954;28;20399;-87
2023/06/07 10:41:04;;;;;;;10.55;4.20;;;21.40;97.00;;;;;;5077616;28;20043;-88
2023/06/07 10:43:31;;;;;;;12.52;4.38;;;21.40;96.30;;;;;;5073175;28;20051;-88
2023/06/07 10:46:18;;;;;;;8.77;4.10;;;21.50;96.60;;;;;;5057019;28;20063;-84
2023/06/07 10:48:45;;;;;;;11.32;4.88;;;21.60;96.00;;;;;;5066251;28;20036;-83
2023/06/07 10:51:15;;;;;;;9.98;4.32;;;21.60;96.30;;;;;;5074818;28;20158;-85
2023/06/07 10:53:56;;;;;;;10.68;4.13;;;21.80;96.20;;;;;;5106271;27;20047;-81
2023/06/07 10:56:31;;;;;;;11.18;3.95;;;21.90;95.40;;;;;;5066505;28;20170;-81
2023/06/07 10:59:13;;;;;;;10.25;4.20;;;22.00;95.30;;;;;;5104245;27;20526;-81
2023/06/07 11:01:39;;;;;;;9.63;4.20;;;22.20;95.50;;;;;;5069904;28;20404;-81
2023/06/07 11:04:05;;;;;;;12.98;3.75;;;22.30;95.30;;;;;;5069718;28;20032;-81
2023/06/07 11:06:34;;;;;;;11.57;4.47;;;22.40;94.70;;;;;;5069874;28;20105;-83
2023/06/07 11:09:18;;;;;;;75.95;7.88;;;22.50;94.40;;;;;;5067959;28;20741;-83
2023/06/07 11:11:45;;;;;;;14.80;4.40;;;22.70;94.00;;;;;;5085932;28;20063;-85
2023/06/07 11:14:14;;;;;;;11.10;4.00;;;22.80;94.30;;;;;;5068691;28;20063;-84
2023/06/07 11:16:40;;;;;;;13.40;4.05;;;22.90;93.90;;;;;;5069632;28;20040;-84
2023/06/07 11:19:18;;;;;;;12.80;4.13;;;22.90;94.00;;;;;;5082136;28;20622;-83
2023/06/07 11:22:06;;;;;;;8.95;3.80;;;22.90;92.40;;;;;;5105328;27;20116;-86
2023/06/07 11:24:34;;;;;;;10.68;4.57;;;23.00;92.20;;;;;;5103516;27;20368;-85
2023/06/07 11:27:00;;;;;;;11.82;4.40;;;23.20;93.20;;;;;;5069330;28;20095;-85
2023/06/07 11:29:27;;;;;;;10.10;4.15;;;23.30;92.90;;;;;;5068457;28;20029;-85
2023/06/07 11:32:01;;;;;;;19.48;4.53;;;23.30;92.60;;;;;;5071905;28;20054;-85
2023/06/07 11:34:33;;;;;;;11.25;3.80;;;23.40;92.40;;;;;;5086088;28;20040;-85
2023/06/07 11:37:25;;;;;;;16.38;4.63;;;23.40;92.00;;;;;;5076092;28;20371;-84
2023/06/07 11:39:50;;;;;;;9.95;4.63;;;23.60;91.80;;;;;;5075739;28;20042;-84
2023/06/07 11:42:16;;;;;;;14.25;4.47;;;23.70;92.20;;;;;;5058622;28;20032;-84
2023/06/07 11:44:43;;;;;;;15.25;4.28;;;23.80;91.70;;;;;;5073335;28;20043;-84
2023/06/07 11:47:09;;;;;;;21.38;4.32;;;23.80;91.50;;;;;;5094010;28;20032;-86
2023/06/07 11:49:38;;;;;;;10.75;4.50;;;23.80;91.20;;;;;;5076755;28;20050;-86
2023/06/07 11:52:04;;;;;;;12.05;4.60;;;23.90;91.10;;;;;;5094618;28;20058;-85
2023/06/07 11:54:30;;;;;;;14.23;5.15;;;24.00;91.00;;;;;;5061210;28;20131;-85
2023/06/07 11:56:58;;;;;;;12.38;4.35;;;23.90;90.40;;;;;;5095843;28;20051;-85
2023/06/07 11:59:24;;;;;;;14.70;4.03;;;24.00;90.50;;;;;;5090348;28;20067;-85
2023/06/07 12:01:54;;;;;;;8.77;4.57;;;24.00;90.40;;;;;;5079469;28;20439;-85
2023/06/07 12:04:21;;;;;;;13.40;3.88;;;24.10;90.00;;;;;;5064276;28;20043;-84
2023/06/07 12:06:49;;;;;;;9.20;4.30;;;24.20;90.20;;;;;;5102755;28;20059;-84
2023/06/07 12:09:18;;;;;;;8.45;4.43;;;24.30;90.00;;;;;;5099711;28;20085;-84
2023/06/07 12:11:44;;;;;;;20.98;4.82;;;24.50;90.10;;;;;;5100389;28;20278;-84
2023/06/07 12:14:11;;;;;;;17.60;5.25;;;24.30;88.80;;;;;;5082556;28;20032;-84
2023/06/07 12:16:38;;;;;;;11.00;4.07;;;24.50;89.20;;;;;;5083716;28;21537;-84
2023/06/07 12:19:07;;;;;;;8.98;4.28;;;24.40;87.90;;;;;;5082365;28;20044;-84
2023/06/07 12:21:33;;;;;;;8.45;4.13;;;24.60;88.40;;;;;;5100989;28;20032;-84
2023/06/07 12:24:00;;;;;;;99.53;9.38;;;24.60;88.50;;;;;;5080963;28;20469;-85
2023/06/07 12:26:27;;;;;;;10.13;3.70;;;24.60;87.50;;;;;;5076453;28;20040;-84
2023/06/07 12:28:52;;;;;;;11.00;4.20;;;24.70;88.00;;;;;;5092956;28;20035;-84
2023/06/07 12:31:24;;;;;;;8.13;4.28;;;24.80;87.50;;;;;;5108133;28;20062;-84
2023/06/07 12:33:57;;;;;;;10.97;4.87;;;24.70;85.50;;;;;;5094329;28;20046;-85
2023/06/07 12:36:25;;;;;;;7.30;4.05;;;24.60;85.50;;;;;;5111402;27;20437;-84
2023/06/07 12:38:52;;;;;;;13.38;4.10;;;24.80;86.30;;;;;;5092640;28;20034;-84
2023/06/07 12:41:18;;;;;;;7.97;4.10;;;24.80;85.90;;;;;;5072029;28;20068;-85